Newvida — V7KQ7 — position and weather

sailwx.info

Track history (hours):
 
Tides and Currents Weather Stations Pressure Air Temp Water Temp Dewpoint Dewpoint Depression Visibility Wind Speed Wind Dir Waves Ship Positions

Newvida

Last reported at 2016-Jul-01 00:31 UTC. Time now 2016-Jul-02 02:12 UTC.
Position N 42°10' E 009°47'.

Length 56 m; draft 2.4 m.

Type: Pleasure craft. MMSI: 538080049.

Date/timePositionNaut miles runAvg speedWind from/ knotsBaromVisibWave heightAir tempDewpointWater temp
2016-Jul-01 00:31N 42°10' E 009°47'1611.0
2016-Jun-30 23:04N 42°26' E 009°51'611.3
2016-Jun-30 22:33N 42°31' E 009°55'1211.5
2016-Jun-30 21:28N 42°43' E 010°00'1010.6
2016-Jun-30 20:33N 42°50' E 010°09'5 5.1
2016-Jun-30 19:33N 42°48' E 010°16'0 0.0
2016-Jun-30 18:27N 42°48' E 010°16'0 0.0
2016-Jun-30 17:15N 42°48' E 010°16'0 0.0
2016-Jun-30 16:33N 42°48' E 010°16'0 0.0
2016-Jun-30 15:33N 42°48' E 010°16'0 0.1
2016-Jun-30 14:33N 42°48' E 010°16'0 0.1
2016-Jun-30 13:23N 42°48' E 010°16'3 0.5
2016-Jun-30 06:27N 42°49' E 010°20'4 4.9
2016-Jun-30 05:33N 42°53' E 010°17'1211.1
2016-Jun-30 04:29N 43°02' E 010°07'1111.3
2016-Jun-30 03:32N 43°10' E 009°58'1110.8
2016-Jun-30 02:33N 43°18' E 009°48'1010.2
2016-Jun-30 01:33N 43°28' E 009°45'1110.6
2016-Jun-30 00:34N 43°39' E 009°47'1111.2
2016-Jun-29 23:34N 43°50' E 009°50'1111.1
2016-Jun-29 22:33N 44°01' E 009°52'3 2.7
2016-Jun-29 21:33N 44°03' E 009°51'0 0.0
2016-Jun-29 20:33N 44°03' E 009°51'0 0.0
2016-Jun-29 19:33N 44°03' E 009°51'0 0.0
2016-Jun-29 18:33N 44°03' E 009°51'4 3.5
2016-Jun-29 17:33N 44°01' E 009°47'1110.6
2016-Jun-29 16:33N 44°06' E 009°34'1111.0
2016-Jun-29 15:33N 44°13' E 009°23'9 2.0
2016-Jun-29 11:10N 44°19' E 009°13'0 0.0
2016-Jun-29 08:19N 44°19' E 009°13'0 0.0
2016-Jun-29 07:19N 44°19' E 009°13'0 0.0
2016-Jun-29 06:07N 44°19' E 009°13'0 0.0
2016-Jun-29 05:34N 44°19' E 009°13'0 0.0
2016-Jun-29 04:18N 44°19' E 009°13'0 0.0
2016-Jun-29 01:30N 44°19' E 009°13'0 0.0
2016-Jun-28 22:30N 44°19' E 009°13'0 0.0
2016-Jun-28 21:32N 44°19' E 009°13'6 6.6
2016-Jun-28 20:33N 44°14' E 009°07'1111.0
2016-Jun-28 19:33N 44°09' E 008°53'1110.8
2016-Jun-28 18:33N 44°03' E 008°41'1010.3
2016-Jun-28 17:33N 43°59' E 008°28'10 9.8
2016-Jun-28 16:33N 43°54' E 008°16'9 9.4
2016-Jun-28 15:33N 43°49' E 008°05'10 9.6
2016-Jun-28 14:32N 43°47' E 007°52'1010.0
2016-Jun-28 13:33N 43°45' E 007°38'9 1.8
2016-Jun-28 08:33N 43°44' E 007°26'0 0.0
2016-Jun-27 16:18N 43°44' E 007°26'  
2016-Jun-24 22:15N 43°44' E 007°25'0 0.0
2016-Jun-24 19:27N 43°44' E 007°25'26 2.1
2016-Jun-24 07:11N 43°51' E 008°00'  
Track history (hours):
 
Tides and Currents Weather Stations Pressure Air Temp Water Temp Dewpoint Dewpoint Depression Visibility Wind Speed Wind Dir Waves Ship Positions

Newvida

Last reported at 2016-Jul-01 00:31 UTC. Time now 2016-Jul-02 02:12 UTC.
Position N 42°10' E 009°47'.

Length 56 m; draft 2.4 m.

Type: Pleasure craft. MMSI: 538080049.

Date/timePositionNaut miles runAvg speedWind from/ knotsBaromVisibWave heightAir tempDewpointWater temp
2016-Jul-01 00:31N 42°10' E 009°47'1611.0
2016-Jun-30 23:04N 42°26' E 009°51'611.3
2016-Jun-30 22:33N 42°31' E 009°55'1211.5
2016-Jun-30 21:28N 42°43' E 010°00'1010.6
2016-Jun-30 20:33N 42°50' E 010°09'5 5.1
2016-Jun-30 19:33N 42°48' E 010°16'0 0.0
2016-Jun-30 18:27N 42°48' E 010°16'0 0.0
2016-Jun-30 17:15N 42°48' E 010°16'0 0.0
2016-Jun-30 16:33N 42°48' E 010°16'0 0.0
2016-Jun-30 15:33N 42°48' E 010°16'0 0.1
2016-Jun-30 14:33N 42°48' E 010°16'0 0.1
2016-Jun-30 13:23N 42°48' E 010°16'3 0.5
2016-Jun-30 06:27N 42°49' E 010°20'4 4.9
2016-Jun-30 05:33N 42°53' E 010°17'1211.1
2016-Jun-30 04:29N 43°02' E 010°07'1111.3
2016-Jun-30 03:32N 43°10' E 009°58'1110.8
2016-Jun-30 02:33N 43°18' E 009°48'1010.2
2016-Jun-30 01:33N 43°28' E 009°45'1110.6
2016-Jun-30 00:34N 43°39' E 009°47'1111.2
2016-Jun-29 23:34N 43°50' E 009°50'1111.1
2016-Jun-29 22:33N 44°01' E 009°52'3 2.7
2016-Jun-29 21:33N 44°03' E 009°51'0 0.0
2016-Jun-29 20:33N 44°03' E 009°51'0 0.0
2016-Jun-29 19:33N 44°03' E 009°51'0 0.0
2016-Jun-29 18:33N 44°03' E 009°51'4 3.5
2016-Jun-29 17:33N 44°01' E 009°47'1110.6
2016-Jun-29 16:33N 44°06' E 009°34'1111.0
2016-Jun-29 15:33N 44°13' E 009°23'9 2.0
2016-Jun-29 11:10N 44°19' E 009°13'0 0.0
2016-Jun-29 08:19N 44°19' E 009°13'0 0.0
2016-Jun-29 07:19N 44°19' E 009°13'0 0.0
2016-Jun-29 06:07N 44°19' E 009°13'0 0.0
2016-Jun-29 05:34N 44°19' E 009°13'0 0.0
2016-Jun-29 04:18N 44°19' E 009°13'0 0.0
2016-Jun-29 01:30N 44°19' E 009°13'0 0.0
2016-Jun-28 22:30N 44°19' E 009°13'0 0.0
2016-Jun-28 21:32N 44°19' E 009°13'6 6.6
2016-Jun-28 20:33N 44°14' E 009°07'1111.0
2016-Jun-28 19:33N 44°09' E 008°53'1110.8
2016-Jun-28 18:33N 44°03' E 008°41'1010.3
2016-Jun-28 17:33N 43°59' E 008°28'10 9.8
2016-Jun-28 16:33N 43°54' E 008°16'9 9.4
2016-Jun-28 15:33N 43°49' E 008°05'10 9.6
2016-Jun-28 14:32N 43°47' E 007°52'1010.0
2016-Jun-28 13:33N 43°45' E 007°38'9 1.8
2016-Jun-28 08:33N 43°44' E 007°26'0 0.0
2016-Jun-27 16:18N 43°44' E 007°26'  
2016-Jun-24 22:15N 43°44' E 007°25'0 0.0
2016-Jun-24 19:27N 43°44' E 007°25'26 2.1
2016-Jun-24 07:11N 43°51' E 008°00'  

Dump ship's entire track history